createdAt,value
2019-04-04T00:00:35.860Z,91.00
2019-04-04T00:03:14.105Z,99.90
2019-04-04T00:05:51.899Z,90.90
2019-04-04T00:08:31.696Z,91.00
2019-04-04T00:11:08.230Z,90.50
2019-04-04T00:13:45.807Z,90.80
2019-04-04T00:16:23.374Z,88.70
2019-04-04T00:19:00.877Z,91.00
2019-04-04T00:21:40.177Z,90.20
2019-04-04T00:24:17.800Z,88.80
2019-04-04T00:26:55.406Z,86.10
2019-04-04T00:29:35.643Z,86.90
2019-04-04T00:32:13.328Z,95.50
2019-04-04T00:34:50.895Z,95.70
2019-04-04T00:40:03.793Z,95.50
2019-04-04T00:42:41.330Z,94.80
2019-04-04T00:45:19.185Z,94.70
2019-04-04T00:47:57.027Z,94.30
2019-04-04T00:55:46.958Z,94.50
2019-04-04T00:58:23.883Z,94.50
2019-04-04T01:06:11.714Z,94.30
2019-04-04T01:16:35.776Z,94.50
2019-04-04T01:19:13.380Z,94.80
2019-04-04T01:21:53.038Z,94.50
2019-04-04T01:24:30.146Z,94.60
2019-04-04T01:27:07.923Z,94.30
2019-04-04T01:32:20.783Z,94.80
2019-04-04T01:34:58.420Z,85.70
2019-04-04T01:37:36.249Z,91.70
2019-04-04T01:40:15.257Z,90.70
2019-04-04T01:42:52.884Z,90.20
2019-04-04T01:45:32.035Z,88.30
2019-04-04T01:48:09.813Z,85.30
2019-04-04T01:50:47.596Z,88.50
2019-04-04T01:53:25.206Z,82.90
2019-04-04T01:56:05.943Z,83.20
2019-04-04T01:58:41.933Z,82.50
2019-04-04T02:01:19.717Z,89.60
2019-04-04T02:03:57.253Z,90.60
2019-04-04T02:06:35.014Z,83.10
2019-04-04T02:09:13.271Z,83.10
2019-04-04T02:11:51.032Z,84.40
2019-04-04T02:14:28.723Z,83.90
2019-04-04T02:17:06.403Z,96.80
2019-04-04T02:19:44.119Z,96.10
2019-04-04T02:22:21.796Z,83.10
2019-04-04T02:25:02.824Z,83.30
2019-04-04T02:27:38.441Z,83.60
2019-04-04T02:30:16.481Z,95.60
2019-04-04T02:32:59.460Z,83.00
2019-04-04T02:35:33.170Z,82.90
2019-04-04T02:38:10.887Z,94.40
2019-04-04T02:40:48.610Z,93.80
2019-04-04T02:43:28.299Z,93.80
2019-04-04T02:46:05.252Z,93.70
2019-04-04T02:48:42.929Z,93.90
2019-04-04T02:53:55.539Z,93.80
2019-04-04T02:59:09.628Z,94.30
2019-04-04T03:01:47.340Z,95.60
2019-04-04T03:04:25.251Z,95.10
2019-04-04T03:07:02.917Z,96.10
2019-04-04T03:09:43.415Z,86.90
2019-04-04T03:12:19.491Z,87.10
2019-04-04T03:15:00.436Z,90.60
2019-04-04T03:17:37.973Z,93.40
2019-04-04T03:20:17.213Z,88.60
2019-04-04T03:23:00.290Z,87.20
2019-04-04T03:25:35.837Z,86.90
2019-04-04T03:28:13.635Z,86.70
2019-04-04T03:31:00.967Z,86.40
2019-04-04T03:33:32.539Z,86.40
2019-04-04T03:36:08.979Z,85.70
2019-04-04T03:38:47.345Z,86.10
2019-04-04T03:41:25.142Z,85.90
2019-04-04T03:44:02.827Z,99.90
2019-04-04T03:46:40.610Z,86.20
2019-04-04T03:49:23.099Z,99.90
2019-04-04T03:51:57.183Z,85.20
2019-04-04T03:54:34.871Z,85.80
2019-04-04T03:57:12.667Z,85.50
2019-04-04T03:59:50.235Z,85.30
2019-04-04T04:02:27.969Z,99.90
2019-04-04T04:05:05.558Z,85.30
2019-04-04T04:07:45.875Z,85.10
2019-04-04T04:10:23.564Z,85.10
2019-04-04T04:13:01.409Z,84.70
2019-04-04T04:15:38.992Z,84.10
2019-04-04T04:18:20.227Z,84.30
2019-04-04T04:20:55.394Z,84.30
2019-04-04T04:23:33.222Z,84.00
2019-04-04T04:26:10.819Z,83.70
2019-04-04T04:28:52.131Z,84.50
2019-04-04T04:31:28.021Z,99.90
2019-04-04T04:34:05.676Z,84.30
2019-04-04T04:36:47.653Z,84.40
2019-04-04T04:39:22.114Z,84.10
2019-04-04T04:41:59.864Z,84.10
2019-04-04T04:44:38.762Z,84.50
2019-04-04T04:47:16.316Z,84.60
2019-04-04T04:49:55.499Z,84.70
2019-04-04T04:52:32.879Z,83.80
2019-04-04T04:55:12.168Z,84.20
2019-04-04T04:57:49.693Z,99.90
2019-04-04T05:00:29.081Z,84.00
2019-04-04T05:03:06.923Z,82.40
2019-04-04T05:05:44.643Z,82.50
2019-04-04T05:08:22.374Z,98.20
2019-04-04T05:11:00.053Z,82.30
2019-04-04T05:13:37.590Z,82.20
2019-04-04T05:16:15.227Z,81.50
2019-04-04T05:18:52.798Z,81.90
2019-04-04T05:21:33.881Z,82.30
2019-04-04T05:24:09.398Z,82.00
2019-04-04T05:26:47.073Z,82.20
2019-04-04T05:29:24.659Z,82.60
2019-04-04T05:32:02.345Z,82.60
2019-04-04T05:34:40.096Z,82.80
2019-04-04T05:37:17.677Z,83.10
2019-04-04T05:39:55.481Z,83.10
2019-04-04T05:42:33.669Z,83.50
2019-04-04T05:45:13.909Z,84.00
2019-04-04T05:47:50.907Z,84.70
2019-04-04T05:50:29.044Z,84.90
2019-04-04T05:53:06.699Z,85.30
2019-04-04T05:55:44.424Z,84.20
2019-04-04T05:58:22.695Z,99.90
2019-04-04T06:01:01.964Z,81.90
2019-04-04T06:03:39.870Z,82.50
2019-04-04T06:06:17.526Z,82.40
2019-04-04T06:08:55.270Z,83.20
2019-04-04T06:11:32.988Z,99.90
2019-04-04T06:14:11.041Z,83.90
2019-04-04T06:16:48.755Z,84.80
2019-04-04T06:19:26.597Z,85.90
2019-04-04T06:22:04.227Z,86.40
2019-04-04T06:24:41.908Z,86.40
2019-04-04T06:27:19.543Z,86.20
2019-04-04T06:29:57.259Z,86.90
2019-04-04T06:32:34.948Z,92.90
2019-04-04T06:35:13.189Z,87.50
2019-04-04T06:37:52.030Z,86.80
2019-04-04T06:40:30.318Z,86.80
2019-04-04T06:43:11.505Z,86.60
2019-04-04T06:45:47.580Z,86.20
2019-04-04T06:48:28.989Z,99.90
2019-04-04T06:51:04.117Z,86.70
2019-04-04T06:53:41.845Z,87.20
2019-04-04T06:56:19.590Z,87.60
2019-04-04T06:58:57.512Z,87.40
2019-04-04T07:01:35.171Z,88.00
2019-04-04T07:04:12.753Z,90.00
2019-04-04T07:06:50.499Z,91.00
2019-04-04T07:11:55.605Z,99.90
2019-04-04T07:14:45.258Z,92.30
2019-04-04T07:17:11.952Z,99.90
2019-04-04T07:19:49.193Z,99.90
2019-04-04T07:22:26.977Z,93.10
2019-04-04T07:25:06.570Z,93.20
2019-04-04T07:27:43.320Z,93.20
2019-04-04T07:30:22.785Z,93.30
2019-04-04T07:33:00.319Z,93.30
2019-04-04T07:35:39.622Z,93.50
2019-04-04T07:38:18.834Z,96.10
2019-04-04T07:40:56.655Z,99.90
2019-04-04T07:43:34.270Z,98.80
2019-04-04T07:46:16.681Z,96.10
2019-04-04T07:51:28.112Z,98.00
2019-04-04T07:54:07.286Z,97.80
2019-04-04T07:56:46.737Z,96.90
2019-04-04T07:59:23.231Z,99.50
2019-04-04T08:02:02.509Z,99.20
2019-04-04T08:07:16.672Z,98.70
2019-04-04T08:09:54.547Z,98.90
2019-04-04T08:15:07.683Z,98.30
2019-04-04T08:20:20.380Z,99.00
2019-04-04T08:22:58.243Z,99.10
2019-04-04T08:28:11.667Z,99.50
2019-04-04T08:30:49.323Z,99.30
2019-04-04T08:33:27.555Z,99.50
2019-04-04T08:36:06.527Z,99.60
2019-04-04T08:41:22.654Z,99.10
2019-04-04T08:44:00.378Z,99.60
2019-04-04T08:49:13.475Z,99.80
2019-04-04T08:51:51.335Z,99.50
2019-04-04T08:54:28.960Z,99.90
2019-04-04T08:57:06.955Z,99.90
2019-04-04T09:02:20.233Z,97.00
2019-04-04T09:05:10.659Z,99.90
2019-04-04T09:07:36.784Z,99.90
2019-04-04T09:10:14.971Z,99.80
2019-04-04T09:18:07.067Z,99.90
2019-04-04T09:23:30.865Z,99.90
2019-04-04T09:28:55.178Z,97.50
2019-04-04T09:31:35.867Z,99.90
2019-04-04T09:34:14.192Z,99.90
2019-04-04T09:36:53.896Z,99.50
2019-04-04T09:39:31.342Z,99.90
2019-04-04T09:42:09.414Z,99.70
2019-04-04T09:47:24.076Z,99.80
2019-04-04T09:50:03.385Z,98.70
2019-04-04T09:52:41.178Z,99.50
2019-04-04T09:55:20.442Z,98.60
2019-04-04T10:00:40.127Z,99.70
2019-04-04T10:03:19.130Z,99.50
2019-04-04T10:05:57.411Z,98.80
2019-04-04T10:08:38.449Z,98.90
2019-04-04T10:11:14.674Z,93.50
2019-04-04T10:16:28.211Z,98.30
2019-04-04T10:19:08.439Z,97.60
2019-04-04T10:24:24.796Z,96.90
2019-04-04T10:27:03.142Z,97.00
2019-04-04T10:29:41.410Z,97.10
2019-04-04T10:32:19.413Z,96.80
2019-04-04T10:34:59.178Z,96.90
2019-04-04T10:37:37.451Z,96.50
2019-04-04T10:40:18.341Z,96.50
2019-04-04T10:42:59.596Z,95.80
2019-04-04T10:45:37.961Z,96.10
2019-04-04T10:48:17.343Z,97.10
2019-04-04T10:50:55.047Z,96.50
2019-04-04T10:53:32.800Z,96.40
2019-04-04T10:56:10.632Z,96.60
2019-04-04T10:58:48.530Z,96.50
2019-04-04T11:01:26.078Z,97.10
2019-04-04T11:06:42.188Z,96.70
2019-04-04T11:09:21.666Z,97.20
2019-04-04T11:14:35.824Z,96.80
2019-04-04T11:17:15.465Z,96.70
2019-04-04T11:19:53.287Z,97.70
2019-04-04T11:22:30.984Z,97.30
2019-04-04T11:27:43.961Z,97.50
2019-04-04T11:30:22.346Z,97.70
2019-04-04T11:33:00.443Z,97.70
2019-04-04T11:35:38.293Z,97.80
2019-04-04T11:38:16.284Z,97.70
2019-04-04T11:40:53.947Z,97.80
2019-04-04T11:43:31.582Z,98.10
2019-04-04T11:46:09.294Z,97.80
2019-04-04T11:48:46.838Z,98.10
2019-04-04T11:51:24.556Z,98.10
2019-04-04T11:54:02.240Z,98.20
2019-04-04T11:59:15.374Z,97.80
2019-04-04T12:01:53.640Z,98.00
2019-04-04T12:07:06.725Z,98.30
2019-04-04T12:09:44.363Z,98.60
2019-04-04T12:12:22.104Z,98.70
2019-04-04T12:14:59.738Z,98.70
2019-04-04T12:17:37.413Z,98.90
2019-04-04T12:20:15.744Z,95.90
2019-04-04T12:22:53.495Z,99.70
2019-04-04T12:25:31.187Z,99.20
2019-04-04T12:30:44.078Z,99.50
2019-04-04T12:33:21.863Z,99.90
2019-04-04T12:35:59.482Z,99.70
2019-04-04T12:38:37.331Z,99.90
2019-04-04T12:41:15.237Z,99.50
2019-04-04T12:43:53.190Z,99.60
2019-04-04T12:46:30.838Z,99.90
2019-04-04T12:49:08.706Z,99.90
2019-04-04T12:51:46.495Z,99.90
2019-04-04T12:54:24.370Z,99.90
2019-04-04T12:59:38.820Z,94.50
2019-04-04T13:02:16.719Z,99.90
2019-04-04T13:04:54.673Z,99.90
2019-04-04T13:07:32.631Z,99.90
2019-04-04T13:10:12.129Z,99.90
2019-04-04T13:12:49.999Z,99.90
2019-04-04T13:15:27.873Z,99.90
2019-04-04T13:18:05.529Z,99.90
2019-04-04T13:20:43.208Z,99.90
2019-04-04T13:25:55.881Z,99.90
2019-04-04T13:28:33.633Z,99.90
2019-04-04T13:31:13.112Z,99.90
2019-04-04T13:33:50.634Z,99.90
2019-04-04T13:36:28.260Z,99.90
2019-04-04T13:39:05.952Z,99.90
2019-04-04T13:41:43.799Z,99.90
2019-04-04T13:44:23.420Z,99.90
2019-04-04T13:47:02.809Z,99.90
2019-04-04T13:49:38.819Z,99.90
2019-04-04T13:52:16.455Z,99.90
2019-04-04T13:54:55.639Z,99.90
2019-04-04T13:57:33.216Z,99.90
2019-04-04T14:00:12.995Z,99.90
2019-04-04T14:02:52.178Z,99.90
2019-04-04T14:08:04.621Z,99.90
2019-04-04T14:10:42.270Z,99.90
2019-04-04T14:13:20.121Z,97.70
2019-04-04T14:15:57.919Z,99.90
2019-04-04T14:18:39.783Z,99.90
2019-04-04T14:21:16.898Z,94.80
2019-04-04T14:23:56.776Z,99.90
2019-04-04T14:26:33.335Z,99.90
2019-04-04T14:29:11.263Z,99.90
2019-04-04T14:31:48.826Z,99.90
2019-04-04T14:34:27.072Z,99.90
2019-04-04T14:37:04.674Z,99.90
2019-04-04T14:39:42.227Z,94.60
2019-04-04T14:44:55.000Z,99.90
2019-04-04T14:47:33.246Z,99.90
2019-04-04T14:50:11.407Z,99.90
2019-04-04T14:52:49.279Z,99.90
2019-04-04T14:55:27.711Z,99.90
2019-04-04T14:58:05.298Z,99.90
2019-04-04T15:00:43.527Z,98.30
2019-04-04T15:03:22.173Z,99.90
2019-04-04T15:06:00.231Z,99.90
2019-04-04T15:08:37.867Z,99.90
2019-04-04T15:11:24.016Z,99.90
2019-04-04T15:13:54.450Z,99.90
2019-04-04T15:16:32.125Z,99.90
2019-04-04T15:19:09.785Z,99.90
2019-04-04T15:21:47.536Z,99.90
2019-04-04T15:24:25.162Z,99.90
2019-04-04T15:27:03.158Z,99.90
2019-04-04T15:29:41.086Z,99.90
2019-04-04T15:34:54.263Z,99.90
2019-04-04T15:37:32.030Z,99.90
2019-04-04T15:40:09.927Z,99.90
2019-04-04T15:42:47.809Z,99.90
2019-04-04T15:45:25.683Z,99.90
2019-04-04T15:48:05.037Z,99.90
2019-04-04T15:50:42.661Z,94.80
2019-04-04T15:53:20.491Z,99.90
2019-04-04T15:55:58.082Z,99.90
2019-04-04T15:58:36.073Z,99.90
2019-04-04T16:01:13.613Z,99.90
2019-04-04T16:06:26.304Z,99.90
2019-04-04T16:09:03.899Z,98.70
2019-04-04T16:11:49.301Z,99.90
2019-04-04T16:14:20.477Z,99.90
2019-04-04T16:16:58.197Z,99.90
2019-04-04T16:19:35.921Z,99.40
2019-04-04T16:22:13.460Z,96.90
2019-04-04T16:24:51.074Z,99.10
2019-04-04T16:27:28.688Z,98.80
2019-04-04T16:30:07.870Z,99.10
2019-04-04T16:32:45.350Z,99.20
2019-04-04T16:35:22.991Z,99.30
2019-04-04T16:38:00.599Z,99.50
2019-04-04T16:40:38.243Z,99.80
2019-04-04T16:45:50.911Z,99.90
2019-04-04T16:48:28.539Z,99.90
2019-04-04T16:51:06.506Z,99.90
2019-04-04T16:53:44.114Z,99.90
2019-04-04T16:58:56.762Z,99.90
2019-04-04T17:01:34.523Z,99.90
2019-04-04T17:04:12.179Z,99.90
2019-04-04T17:06:51.465Z,99.90
2019-04-04T17:09:29.307Z,99.90
2019-04-04T17:12:14.715Z,99.90
2019-04-04T17:14:46.199Z,99.90
2019-04-04T17:17:23.850Z,99.90
2019-04-04T17:20:01.472Z,99.90
2019-04-04T17:22:39.004Z,99.90
2019-04-04T17:25:16.748Z,99.90
2019-04-04T17:27:54.462Z,99.90
2019-04-04T17:30:32.342Z,99.90
2019-04-04T17:33:10.549Z,99.90
2019-04-04T17:35:48.638Z,99.90
2019-04-04T17:38:26.351Z,99.90
2019-04-04T17:41:04.225Z,99.90
2019-04-04T17:43:42.812Z,99.90
2019-04-04T17:46:20.629Z,99.90
2019-04-04T17:48:58.174Z,99.90
2019-04-04T17:51:35.810Z,99.90
2019-04-04T17:54:14.248Z,99.90
2019-04-04T17:56:52.601Z,95.80
2019-04-04T17:59:30.586Z,96.00
2019-04-04T18:04:48.584Z,95.80
2019-04-04T18:07:24.817Z,95.70
2019-04-04T18:10:02.398Z,99.90
2019-04-04T18:12:40.707Z,99.90
2019-04-04T18:15:18.794Z,99.90
2019-04-04T18:20:32.710Z,99.90
2019-04-04T18:23:10.347Z,99.90
2019-04-04T18:25:48.048Z,99.90
2019-04-04T18:28:25.599Z,99.90
2019-04-04T18:31:03.416Z,96.40
2019-04-04T18:33:48.231Z,96.00
2019-04-04T18:36:25.847Z,96.10
2019-04-04T18:39:03.393Z,96.20
2019-04-04T18:41:41.167Z,99.90
2019-04-04T18:44:18.782Z,99.90
2019-04-04T18:46:56.346Z,99.90
2019-04-04T18:52:09.142Z,99.90
2019-04-04T18:54:46.790Z,99.90
2019-04-04T18:57:24.978Z,99.90
2019-04-04T19:00:02.871Z,99.90
2019-04-04T19:02:40.615Z,99.90
2019-04-04T19:05:18.745Z,99.90
2019-04-04T19:10:31.949Z,99.90
2019-04-04T19:13:09.803Z,99.90
2019-04-04T19:18:22.801Z,99.90
2019-04-04T19:21:00.755Z,99.90
2019-04-04T19:23:48.628Z,99.90
2019-04-04T19:26:17.387Z,99.90
2019-04-04T19:28:55.171Z,99.90
2019-04-04T19:31:32.996Z,99.90
2019-04-04T19:36:45.888Z,99.90
2019-04-04T19:39:23.930Z,99.90
2019-04-04T19:42:04.737Z,99.90
2019-04-04T19:44:52.433Z,99.90
2019-04-04T19:47:19.609Z,99.90
2019-04-04T19:49:57.422Z,99.80
2019-04-04T19:52:36.486Z,99.90
2019-04-04T19:55:14.569Z,99.80
2019-04-04T19:57:52.378Z,99.50
2019-04-04T20:00:32.106Z,99.50
2019-04-04T20:03:09.716Z,98.70
2019-04-04T20:08:22.639Z,98.90
2019-04-04T20:13:35.234Z,98.40
2019-04-04T20:16:12.867Z,98.50
2019-04-04T20:21:26.627Z,95.10
2019-04-04T20:24:04.324Z,96.80
2019-04-04T20:26:42.020Z,98.20
2019-04-04T20:29:19.682Z,97.80
2019-04-04T20:31:57.732Z,97.90
2019-04-04T20:37:11.779Z,98.20
2019-04-04T20:39:49.442Z,98.00
2019-04-04T20:42:27.315Z,98.10
2019-04-04T20:45:07.270Z,98.60
2019-04-04T20:47:45.356Z,98.60
2019-04-04T20:50:23.607Z,98.20
2019-04-04T20:55:40.357Z,98.00
2019-04-04T20:58:18.262Z,98.30
2019-04-04T21:00:56.351Z,98.80
2019-04-04T21:03:34.499Z,98.20
2019-04-04T21:06:12.238Z,99.10
2019-04-04T21:08:50.599Z,99.90
2019-04-04T21:11:28.349Z,91.70
2019-04-04T21:14:06.367Z,92.30
2019-04-04T21:16:44.027Z,99.90
2019-04-04T21:19:21.824Z,99.90
2019-04-04T21:21:59.462Z,92.40
2019-04-04T21:24:37.064Z,92.50
2019-04-04T21:27:14.743Z,92.60
2019-04-04T21:29:52.546Z,92.30
2019-04-04T21:32:30.149Z,92.40
2019-04-04T21:35:07.920Z,92.40
2019-04-04T21:37:45.559Z,92.10
2019-04-04T21:40:23.318Z,92.10
2019-04-04T21:43:00.991Z,92.00
2019-04-04T21:45:38.663Z,91.40
2019-04-04T21:48:16.426Z,91.70
2019-04-04T21:50:54.278Z,91.20
2019-04-04T21:53:31.947Z,91.30
2019-04-04T21:56:09.642Z,90.90
2019-04-04T21:58:48.375Z,99.90
2019-04-04T22:01:27.685Z,91.30
2019-04-04T22:04:05.268Z,91.70
2019-04-04T22:06:42.890Z,99.90
2019-04-04T22:09:23.712Z,91.50
2019-04-04T22:12:01.512Z,91.70
2019-04-04T22:14:39.136Z,90.80
2019-04-04T22:17:16.728Z,90.80
2019-04-04T22:19:54.243Z,90.70
2019-04-04T22:22:31.908Z,90.70
2019-04-04T22:25:09.759Z,90.50
2019-04-04T22:27:47.466Z,90.60
2019-04-04T22:30:25.051Z,98.00
2019-04-04T22:33:02.875Z,97.40
2019-04-04T22:35:40.568Z,89.80
2019-04-04T22:38:18.087Z,89.00
2019-04-04T22:40:55.596Z,88.50
2019-04-04T22:43:33.415Z,88.70
2019-04-04T22:46:11.093Z,90.90
2019-04-04T22:48:48.822Z,90.20
2019-04-04T22:51:26.580Z,99.70
2019-04-04T22:54:04.256Z,88.40
2019-04-04T22:56:41.912Z,90.30
2019-04-04T22:59:19.885Z,89.50
2019-04-04T23:01:57.520Z,87.80
2019-04-04T23:04:35.162Z,86.40
2019-04-04T23:07:12.695Z,89.00
2019-04-04T23:09:50.485Z,90.70
2019-04-04T23:12:28.141Z,90.50
2019-04-04T23:15:05.754Z,85.70
2019-04-04T23:17:45.441Z,88.30
2019-04-04T23:20:23.656Z,89.40
2019-04-04T23:23:01.428Z,90.50
2019-04-04T23:25:39.091Z,90.00
2019-04-04T23:28:16.617Z,84.90
2019-04-04T23:30:55.201Z,89.00
2019-04-04T23:33:32.725Z,85.10
2019-04-04T23:36:11.246Z,88.70
2019-04-04T23:38:48.875Z,89.80
2019-04-04T23:41:26.550Z,96.40
2019-04-04T23:46:40.745Z,90.90
2019-04-04T23:49:18.449Z,90.90
2019-04-04T23:51:56.225Z,99.90
2019-04-04T23:54:35.132Z,92.40
2019-04-04T23:57:12.667Z,92.80
2019-04-04T23:59:50.286Z,93.10
